createdAt,value
2018-05-31T00:00:01.553Z,23.07
2018-05-31T00:02:28.946Z,23.10
2018-05-31T00:04:56.337Z,23.12
2018-05-31T00:07:23.745Z,23.14
2018-05-31T00:09:53.097Z,23.14
2018-05-31T00:12:20.509Z,23.13
2018-05-31T00:14:47.901Z,23.13
2018-05-31T00:17:15.297Z,23.12
2018-05-31T00:19:42.717Z,23.12
2018-05-31T00:22:10.106Z,23.10
2018-05-31T00:24:37.501Z,23.10
2018-05-31T00:27:04.935Z,23.08
2018-05-31T00:29:32.333Z,23.08
2018-05-31T00:31:59.730Z,23.08
2018-05-31T00:34:27.125Z,23.08
2018-05-31T00:36:54.525Z,23.07
2018-05-31T00:39:21.913Z,23.07
2018-05-31T00:41:49.330Z,23.05
2018-05-31T00:44:16.713Z,23.03
2018-05-31T00:46:44.113Z,23.01
2018-05-31T00:49:11.501Z,23.00
2018-05-31T00:51:38.889Z,22.96
2018-05-31T00:54:06.294Z,22.92
2018-05-31T00:56:33.697Z,22.87
2018-05-31T00:59:01.110Z,22.84
2018-05-31T01:01:28.498Z,22.82
2018-05-31T01:03:55.908Z,22.83
2018-05-31T01:06:23.293Z,22.83
2018-05-31T01:08:50.697Z,22.83
2018-05-31T01:11:18.104Z,22.81
2018-05-31T01:13:45.497Z,22.78
2018-05-31T01:16:12.893Z,22.76
2018-05-31T01:18:40.285Z,22.75
2018-05-31T01:21:07.693Z,22.76
2018-05-31T01:23:35.093Z,22.75
2018-05-31T01:26:02.489Z,22.76
2018-05-31T01:28:29.903Z,22.76
2018-05-31T01:30:57.281Z,22.76
2018-05-31T01:33:24.689Z,22.75
2018-05-31T01:35:52.081Z,22.75
2018-05-31T01:38:33.322Z,22.74
2018-05-31T01:41:00.717Z,22.74
2018-05-31T01:43:28.456Z,22.72
2018-05-31T01:45:55.841Z,22.71
2018-05-31T01:48:23.246Z,22.68
2018-05-31T01:50:50.649Z,22.68
2018-05-31T01:53:18.045Z,22.67
2018-05-31T01:55:45.458Z,22.66
2018-05-31T01:58:12.840Z,22.65
2018-05-31T02:00:40.241Z,22.64
2018-05-31T02:03:07.649Z,22.64
2018-05-31T02:05:35.045Z,22.60
2018-05-31T02:08:02.443Z,22.60
2018-05-31T02:10:29.833Z,22.62
2018-05-31T02:12:57.265Z,22.63
2018-05-31T02:15:24.661Z,22.67
2018-05-31T02:17:52.054Z,22.69
2018-05-31T02:20:19.465Z,22.71
2018-05-31T02:22:46.862Z,22.72
2018-05-31T02:25:14.265Z,22.74
2018-05-31T02:27:41.669Z,22.76
2018-05-31T02:30:09.067Z,22.74
2018-05-31T02:32:36.467Z,22.74
2018-05-31T02:35:03.853Z,22.73
2018-05-31T02:37:31.245Z,22.70
2018-05-31T02:39:58.639Z,22.68
2018-05-31T02:42:26.037Z,22.66
2018-05-31T02:44:53.429Z,22.62
2018-05-31T02:47:20.821Z,22.60
2018-05-31T02:49:48.225Z,22.60
2018-05-31T02:52:15.614Z,22.58
2018-05-31T02:54:43.009Z,22.54
2018-05-31T02:57:10.397Z,22.53
2018-05-31T02:59:37.789Z,22.53
2018-05-31T03:02:05.255Z,22.53
2018-05-31T03:04:32.640Z,22.53
2018-05-31T03:07:00.040Z,22.53
2018-05-31T03:09:27.437Z,22.53
2018-05-31T03:11:54.831Z,22.51
2018-05-31T03:14:22.228Z,22.50
2018-05-31T03:16:49.632Z,22.47
2018-05-31T03:19:17.045Z,22.45
2018-05-31T03:21:44.431Z,22.44
2018-05-31T03:24:11.828Z,22.44
2018-05-31T03:26:39.216Z,22.44
2018-05-31T03:29:06.620Z,22.44
2018-05-31T03:31:34.023Z,22.44
2018-05-31T03:34:01.423Z,22.45
2018-05-31T03:36:28.800Z,22.47
2018-05-31T03:38:56.205Z,22.48
2018-05-31T03:41:23.610Z,22.48
2018-05-31T03:43:50.997Z,22.47
2018-05-31T03:46:18.398Z,22.46
2018-05-31T03:48:45.797Z,22.45
2018-05-31T03:51:13.204Z,22.42
2018-05-31T03:53:40.605Z,22.39
2018-05-31T03:56:08.001Z,22.38
2018-05-31T03:58:35.405Z,22.37
2018-05-31T04:01:02.793Z,22.37
2018-05-31T04:03:30.218Z,22.38
2018-05-31T04:05:57.608Z,22.36
2018-05-31T04:08:25.005Z,22.34
2018-05-31T04:10:52.409Z,22.32
2018-05-31T04:13:20.656Z,22.31
2018-05-31T04:15:48.054Z,22.30
2018-05-31T04:18:15.445Z,22.29
2018-05-31T04:20:42.833Z,22.29
2018-05-31T04:23:10.229Z,22.28
2018-05-31T04:25:37.612Z,22.28
2018-05-31T04:28:05.025Z,22.28
2018-05-31T04:30:32.420Z,22.28
2018-05-31T04:32:59.809Z,22.29
2018-05-31T04:35:27.232Z,22.28
2018-05-31T04:37:54.624Z,22.30
2018-05-31T04:40:22.037Z,22.32
2018-05-31T04:42:49.441Z,22.35
2018-05-31T04:45:16.837Z,22.39
2018-05-31T04:47:44.249Z,22.43
2018-05-31T04:50:11.636Z,22.47
2018-05-31T04:52:39.055Z,22.48
2018-05-31T04:55:06.441Z,22.51
2018-05-31T04:57:33.843Z,22.55
2018-05-31T05:00:01.277Z,22.60
2018-05-31T05:02:28.673Z,22.65
2018-05-31T05:04:56.074Z,22.68
2018-05-31T05:07:23.843Z,22.74
2018-05-31T05:09:51.475Z,22.77
2018-05-31T05:12:18.917Z,22.82
2018-05-31T05:14:46.310Z,22.87
2018-05-31T05:17:13.717Z,22.91
2018-05-31T05:19:41.125Z,22.93
2018-05-31T05:22:08.817Z,22.96
2018-05-31T05:24:36.209Z,22.98
2018-05-31T05:27:03.701Z,22.99
2018-05-31T05:29:31.133Z,23.00
2018-05-31T05:31:58.532Z,23.01
2018-05-31T05:34:25.929Z,23.04
2018-05-31T05:36:53.337Z,23.05
2018-05-31T05:39:21.521Z,23.06
2018-05-31T05:41:48.913Z,23.08
2018-05-31T05:44:16.335Z,23.10
2018-05-31T05:46:43.733Z,23.13
2018-05-31T05:49:11.126Z,23.16
2018-05-31T05:51:38.529Z,23.18
2018-05-31T05:54:05.933Z,23.20
2018-05-31T05:56:33.326Z,23.19
2018-05-31T05:59:00.721Z,23.20
2018-05-31T06:01:28.117Z,23.20
2018-05-31T06:03:55.513Z,23.23
2018-05-31T06:06:22.912Z,23.25
2018-05-31T06:08:50.323Z,23.28
2018-05-31T06:11:17.738Z,23.31
2018-05-31T06:13:45.164Z,23.34
2018-05-31T06:16:12.566Z,23.39
2018-05-31T06:18:39.957Z,23.40
2018-05-31T06:21:07.373Z,23.41
2018-05-31T06:23:34.758Z,23.40
2018-05-31T06:26:02.170Z,23.40
2018-05-31T06:28:29.577Z,23.37
2018-05-31T06:30:56.976Z,23.37
2018-05-31T06:33:24.389Z,23.38
2018-05-31T06:35:51.794Z,23.39
2018-05-31T06:38:19.189Z,23.39
2018-05-31T06:40:46.576Z,23.42
2018-05-31T06:43:13.985Z,23.44
2018-05-31T06:45:41.401Z,23.47
2018-05-31T06:48:08.814Z,23.49
2018-05-31T06:50:36.230Z,23.51
2018-05-31T06:53:03.619Z,23.54
2018-05-31T06:55:31.018Z,23.56
2018-05-31T06:57:58.414Z,23.57
2018-05-31T07:00:26.149Z,23.57
2018-05-31T07:02:53.543Z,23.58
2018-05-31T07:05:20.934Z,23.62
2018-05-31T07:07:48.330Z,23.65
2018-05-31T07:10:15.713Z,23.68
2018-05-31T07:12:43.101Z,23.70
2018-05-31T07:15:10.504Z,23.74
2018-05-31T07:17:37.945Z,23.77
2018-05-31T07:20:05.338Z,23.82
2018-05-31T07:22:32.729Z,23.86
2018-05-31T07:25:00.182Z,23.91
2018-05-31T07:27:27.573Z,23.97
2018-05-31T07:29:54.971Z,24.03
2018-05-31T07:32:22.458Z,24.07
2018-05-31T07:34:49.846Z,24.11
2018-05-31T07:37:17.245Z,24.14
2018-05-31T07:39:44.632Z,24.17
2018-05-31T07:42:12.038Z,24.19
2018-05-31T07:44:39.467Z,24.18
2018-05-31T07:47:06.869Z,24.18
2018-05-31T07:49:34.292Z,24.18
2018-05-31T07:52:01.686Z,24.18
2018-05-31T07:54:29.101Z,24.19
2018-05-31T07:56:56.516Z,24.18
2018-05-31T07:59:23.905Z,24.17
2018-05-31T08:01:51.348Z,24.17
2018-05-31T08:04:18.741Z,24.18
2018-05-31T08:06:46.164Z,24.19
2018-05-31T08:09:13.574Z,24.22
2018-05-31T08:11:40.957Z,24.21
2018-05-31T08:14:08.349Z,24.23
2018-05-31T08:16:35.749Z,24.26
2018-05-31T08:19:03.137Z,24.27
2018-05-31T08:21:30.530Z,24.28
2018-05-31T08:23:57.968Z,24.27
2018-05-31T08:26:25.360Z,24.27
2018-05-31T08:28:52.758Z,24.26
2018-05-31T08:31:20.173Z,24.26
2018-05-31T08:33:47.545Z,24.26
2018-05-31T08:36:14.970Z,24.27
2018-05-31T08:38:42.390Z,24.28
2018-05-31T08:41:09.773Z,24.29
2018-05-31T08:43:37.169Z,24.31
2018-05-31T08:46:04.825Z,24.31
2018-05-31T08:48:32.213Z,24.31
2018-05-31T08:50:59.697Z,24.30
2018-05-31T08:53:27.127Z,24.29
2018-05-31T08:55:54.538Z,24.29
2018-05-31T08:58:22.037Z,24.29
2018-05-31T09:00:49.768Z,24.29
2018-05-31T09:03:17.191Z,24.28
2018-05-31T09:05:44.617Z,24.29
2018-05-31T09:08:12.090Z,24.32
2018-05-31T09:10:39.571Z,24.36
2018-05-31T09:13:07.044Z,24.40
2018-05-31T09:15:34.501Z,24.42
2018-05-31T09:18:01.991Z,24.44
2018-05-31T09:20:29.450Z,24.45
2018-05-31T09:22:56.922Z,24.48
2018-05-31T09:25:24.381Z,24.50
2018-05-31T09:27:51.820Z,24.50
2018-05-31T09:30:19.271Z,24.51
2018-05-31T09:32:47.020Z,24.51
2018-05-31T09:35:14.452Z,24.52
2018-05-31T09:37:41.899Z,24.50
2018-05-31T09:40:09.293Z,24.49
2018-05-31T09:42:36.681Z,24.50
2018-05-31T09:45:04.084Z,24.54
2018-05-31T09:47:31.485Z,24.54
2018-05-31T09:49:58.869Z,24.54
2018-05-31T09:52:26.300Z,24.54
2018-05-31T09:54:53.687Z,24.56
2018-05-31T09:57:21.073Z,24.59
2018-05-31T09:59:48.494Z,24.59
2018-05-31T10:02:15.889Z,24.59
2018-05-31T10:04:43.273Z,24.58
2018-05-31T10:07:10.677Z,24.53
2018-05-31T10:09:38.087Z,24.52
2018-05-31T10:12:05.469Z,24.54
2018-05-31T10:14:32.904Z,24.57
2018-05-31T10:17:00.289Z,24.61
2018-05-31T10:19:27.712Z,24.71
2018-05-31T10:21:55.129Z,24.80
2018-05-31T10:24:22.519Z,24.88
2018-05-31T10:26:50.546Z,24.97
2018-05-31T10:29:18.082Z,25.02
2018-05-31T10:31:45.869Z,25.13
2018-05-31T10:34:13.303Z,25.24
2018-05-31T10:36:41.045Z,25.31
2018-05-31T10:39:08.433Z,25.41
2018-05-31T10:41:35.825Z,25.51
2018-05-31T10:44:03.332Z,25.68
2018-05-31T10:46:30.742Z,25.83
2018-05-31T10:48:58.107Z,25.98
2018-05-31T10:51:25.505Z,26.17
2018-05-31T10:53:52.933Z,26.39
2018-05-31T10:56:20.297Z,26.59
2018-05-31T10:58:47.691Z,26.82
2018-05-31T11:01:15.107Z,27.04
2018-05-31T11:03:42.497Z,27.21
2018-05-31T11:06:09.890Z,27.40
2018-05-31T11:08:37.332Z,27.56
2018-05-31T11:11:04.697Z,27.69
2018-05-31T11:13:32.087Z,27.80
2018-05-31T11:15:59.550Z,27.92
2018-05-31T11:18:26.950Z,28.01
2018-05-31T11:20:54.333Z,28.11
2018-05-31T11:23:21.947Z,28.19
2018-05-31T11:25:49.352Z,28.33
2018-05-31T11:28:16.928Z,28.46
2018-05-31T11:30:44.651Z,28.63
2018-05-31T11:33:12.270Z,28.82
2018-05-31T11:35:39.827Z,28.84
2018-05-31T11:38:07.423Z,28.85
2018-05-31T11:40:34.973Z,28.94
2018-05-31T11:43:02.662Z,29.10
2018-05-31T11:45:30.263Z,29.20
2018-05-31T11:47:57.745Z,29.34
2018-05-31T11:50:25.402Z,29.41
2018-05-31T11:52:52.922Z,29.52
2018-05-31T11:55:20.329Z,29.60
2018-05-31T11:57:48.177Z,29.84
2018-05-31T12:00:15.568Z,30.02
2018-05-31T12:02:42.953Z,30.14
2018-05-31T12:05:10.367Z,30.08
2018-05-31T12:07:37.761Z,29.80
2018-05-31T12:10:05.149Z,29.43
2018-05-31T12:12:32.553Z,29.07
2018-05-31T12:14:59.949Z,28.76
2018-05-31T12:17:27.431Z,28.50
2018-05-31T12:19:54.749Z,28.30
2018-05-31T12:22:22.136Z,28.13
2018-05-31T12:24:49.528Z,27.97
2018-05-31T12:27:16.981Z,27.97
2018-05-31T12:29:44.376Z,28.13
2018-05-31T12:32:11.769Z,28.39
2018-05-31T12:34:39.191Z,28.56
2018-05-31T12:37:06.585Z,28.84
2018-05-31T12:39:33.989Z,29.10
2018-05-31T12:42:01.408Z,29.31
2018-05-31T12:44:28.805Z,29.49
2018-05-31T12:46:56.226Z,29.65
2018-05-31T12:49:23.618Z,29.80
2018-05-31T12:51:51.026Z,29.93
2018-05-31T12:54:18.443Z,30.05
2018-05-31T12:56:45.845Z,30.14
2018-05-31T12:59:13.292Z,30.28
2018-05-31T13:01:40.765Z,30.37
2018-05-31T13:04:08.182Z,30.43
2018-05-31T13:06:35.621Z,30.52
2018-05-31T13:09:03.006Z,30.54
2018-05-31T13:11:30.420Z,30.60
2018-05-31T13:13:57.821Z,30.60
2018-05-31T13:16:25.209Z,30.65
2018-05-31T13:18:52.630Z,30.78
2018-05-31T13:21:20.014Z,30.97
2018-05-31T13:23:47.402Z,31.04
2018-05-31T13:26:15.185Z,31.14
2018-05-31T13:28:42.586Z,31.24
2018-05-31T13:31:09.998Z,31.30
2018-05-31T13:33:37.436Z,31.37
2018-05-31T13:36:05.141Z,31.56
2018-05-31T13:38:32.537Z,31.63
2018-05-31T13:40:59.943Z,31.61
2018-05-31T13:43:27.342Z,31.61
2018-05-31T13:45:54.740Z,31.65
2018-05-31T13:48:22.153Z,31.63
2018-05-31T13:50:49.783Z,31.52
2018-05-31T13:53:17.165Z,31.46
2018-05-31T13:55:44.564Z,31.44
2018-05-31T13:58:11.957Z,31.49
2018-05-31T14:00:39.354Z,31.64
2018-05-31T14:03:06.777Z,31.82
2018-05-31T14:05:34.185Z,31.91
2018-05-31T14:08:01.650Z,31.91
2018-05-31T14:10:29.054Z,31.88
2018-05-31T14:12:56.455Z,31.91
2018-05-31T14:15:23.858Z,31.97
2018-05-31T14:17:51.265Z,32.11
2018-05-31T14:20:18.677Z,32.19
2018-05-31T14:22:46.069Z,32.26
2018-05-31T14:25:13.484Z,32.25
2018-05-31T14:27:40.897Z,32.23
2018-05-31T14:30:08.295Z,32.26
2018-05-31T14:32:35.715Z,32.35
2018-05-31T14:35:03.145Z,32.42
2018-05-31T14:37:30.540Z,32.36
2018-05-31T14:39:57.941Z,32.25
2018-05-31T14:42:25.336Z,32.20
2018-05-31T14:44:52.729Z,32.16
2018-05-31T14:47:20.134Z,31.99
2018-05-31T14:49:47.546Z,31.83
2018-05-31T14:52:14.941Z,31.70
2018-05-31T14:54:42.349Z,31.56
2018-05-31T14:57:09.747Z,31.42
2018-05-31T14:59:37.113Z,31.34
2018-05-31T15:02:04.761Z,31.34
2018-05-31T15:04:32.159Z,31.37
2018-05-31T15:06:59.577Z,31.42
2018-05-31T15:09:27.001Z,31.53
2018-05-31T15:11:54.425Z,31.61
2018-05-31T15:14:21.813Z,31.68
2018-05-31T15:16:49.542Z,31.71
2018-05-31T15:19:16.891Z,31.72
2018-05-31T15:21:44.313Z,31.73
2018-05-31T15:24:11.723Z,31.77
2018-05-31T15:26:39.109Z,31.82
2018-05-31T15:29:06.507Z,31.91
2018-05-31T15:31:34.222Z,31.99
2018-05-31T15:34:01.597Z,31.98
2018-05-31T15:36:29.013Z,31.97
2018-05-31T15:38:56.441Z,31.94
2018-05-31T15:41:23.832Z,31.88
2018-05-31T15:43:51.269Z,31.83
2018-05-31T15:46:18.676Z,31.84
2018-05-31T15:48:46.137Z,31.85
2018-05-31T15:51:13.561Z,31.94
2018-05-31T15:53:41.340Z,32.11
2018-05-31T15:56:08.712Z,32.40
2018-05-31T15:58:36.111Z,33.05
2018-05-31T16:01:03.523Z,33.75
2018-05-31T16:03:30.965Z,34.49
2018-05-31T16:05:58.549Z,35.22
2018-05-31T16:08:26.014Z,35.83
2018-05-31T16:10:53.478Z,36.38
2018-05-31T16:13:20.885Z,36.83
2018-05-31T16:15:48.405Z,37.25
2018-05-31T16:18:15.814Z,37.54
2018-05-31T16:20:43.264Z,37.81
2018-05-31T16:23:11.031Z,37.98
2018-05-31T16:25:38.444Z,38.04
2018-05-31T16:28:05.824Z,38.18
2018-05-31T16:30:33.231Z,38.34
2018-05-31T16:33:00.625Z,38.49
2018-05-31T16:35:28.027Z,38.51
2018-05-31T16:37:55.764Z,38.51
2018-05-31T16:40:23.149Z,38.53
2018-05-31T16:42:50.561Z,38.48
2018-05-31T16:45:17.957Z,38.33
2018-05-31T16:47:45.406Z,38.18
2018-05-31T16:50:12.843Z,38.10
2018-05-31T16:52:40.183Z,38.06
2018-05-31T16:55:07.573Z,37.95
2018-05-31T16:57:34.965Z,37.93
2018-05-31T17:00:02.406Z,37.70
2018-05-31T17:02:29.868Z,37.46
2018-05-31T17:04:57.268Z,37.30
2018-05-31T17:07:24.720Z,37.01
2018-05-31T17:09:52.109Z,36.67
2018-05-31T17:12:19.529Z,36.29
2018-05-31T17:14:46.917Z,36.07
2018-05-31T17:17:14.329Z,35.83
2018-05-31T17:19:41.718Z,35.64
2018-05-31T17:22:09.144Z,35.38
2018-05-31T17:24:36.535Z,35.17
2018-05-31T17:27:04.010Z,34.94
2018-05-31T17:29:31.428Z,34.74
2018-05-31T17:31:58.805Z,34.56
2018-05-31T17:34:26.217Z,34.29
2018-05-31T17:36:53.621Z,34.13
2018-05-31T17:39:21.029Z,33.86
2018-05-31T17:41:48.441Z,33.60
2018-05-31T17:44:15.845Z,33.20
2018-05-31T17:46:43.233Z,32.66
2018-05-31T17:49:10.625Z,32.18
2018-05-31T17:51:38.035Z,31.77
2018-05-31T17:54:05.425Z,31.47
2018-05-31T17:56:32.830Z,31.23
2018-05-31T17:59:00.209Z,31.03
2018-05-31T18:01:27.609Z,30.89
2018-05-31T18:03:55.005Z,30.76
2018-05-31T18:06:22.421Z,30.67
2018-05-31T18:08:49.816Z,30.62
2018-05-31T18:11:17.217Z,30.53
2018-05-31T18:13:44.649Z,30.36
2018-05-31T18:16:12.038Z,30.21
2018-05-31T18:18:39.434Z,30.02
2018-05-31T18:21:06.836Z,29.93
2018-05-31T18:23:34.237Z,29.80
2018-05-31T18:26:01.686Z,29.67
2018-05-31T18:28:29.117Z,29.57
2018-05-31T18:30:56.530Z,29.43
2018-05-31T18:33:23.976Z,29.33
2018-05-31T18:35:51.416Z,29.26
2018-05-31T18:38:18.857Z,29.18
2018-05-31T18:40:46.295Z,29.09
2018-05-31T18:43:13.715Z,29.01
2018-05-31T18:45:41.148Z,28.95
2018-05-31T18:48:08.560Z,28.88
2018-05-31T18:50:36.002Z,28.81
2018-05-31T18:53:03.440Z,28.72
2018-05-31T18:55:30.817Z,28.67
2018-05-31T18:57:58.225Z,28.63
2018-05-31T19:00:25.621Z,28.57
2018-05-31T19:02:53.281Z,28.49
2018-05-31T19:05:20.685Z,28.43
2018-05-31T19:07:48.078Z,28.39
2018-05-31T19:10:15.473Z,28.31
2018-05-31T19:12:48.398Z,28.25
2018-05-31T19:15:21.633Z,28.19
2018-05-31T19:17:43.246Z,28.12
2018-05-31T19:20:10.673Z,28.06
2018-05-31T19:22:38.075Z,28.02
2018-05-31T19:25:11.081Z,27.97
2018-05-31T19:27:38.501Z,27.93
2018-05-31T19:30:11.413Z,27.90
2018-05-31T19:32:38.920Z,27.88
2018-05-31T19:35:06.314Z,27.86
2018-05-31T19:37:33.722Z,27.81
2018-05-31T19:40:01.104Z,27.77
2018-05-31T19:42:34.137Z,27.75
2018-05-31T19:45:01.650Z,27.74
2018-05-31T19:47:29.050Z,27.72
2018-05-31T19:49:56.449Z,27.71
2018-05-31T19:52:29.446Z,27.66
2018-05-31T19:54:56.849Z,27.63
2018-05-31T19:57:24.240Z,27.58
2018-05-31T19:59:57.196Z,27.52
2018-05-31T20:02:30.382Z,27.48
2018-05-31T20:04:57.781Z,27.44
2018-05-31T20:07:25.189Z,27.40
2018-05-31T20:09:52.585Z,27.35
2018-05-31T20:12:21.258Z,27.33
2018-05-31T20:14:48.009Z,27.28
2018-05-31T20:17:15.486Z,27.23
2018-05-31T20:19:42.878Z,27.18
2018-05-31T20:22:10.277Z,27.11
2018-05-31T20:24:37.678Z,27.03
2018-05-31T20:27:05.080Z,26.95
2018-05-31T20:29:32.485Z,26.88
2018-05-31T20:31:59.897Z,26.82
2018-05-31T20:34:27.284Z,26.77
2018-05-31T20:36:54.689Z,26.70
2018-05-31T20:39:22.092Z,26.66
2018-05-31T20:41:49.497Z,26.63
2018-05-31T20:44:16.911Z,26.60
2018-05-31T20:46:44.297Z,26.54
2018-05-31T20:49:11.726Z,26.50
2018-05-31T20:51:39.154Z,26.45
2018-05-31T20:54:06.550Z,26.41
2018-05-31T20:56:33.983Z,26.38
2018-05-31T20:59:01.392Z,26.36
2018-05-31T21:01:28.876Z,26.32
2018-05-31T21:03:56.261Z,26.28
2018-05-31T21:06:24.000Z,26.24
2018-05-31T21:08:51.500Z,26.21
2018-05-31T21:11:18.935Z,26.18
2018-05-31T21:13:46.363Z,26.13
2018-05-31T21:16:13.765Z,26.09
2018-05-31T21:18:41.177Z,26.05
2018-05-31T21:21:08.596Z,26.01
2018-05-31T21:23:36.002Z,25.98
2018-05-31T21:26:03.455Z,25.95
2018-05-31T21:28:30.809Z,25.90
2018-05-31T21:30:58.244Z,25.85
2018-05-31T21:33:25.642Z,25.82
2018-05-31T21:35:53.039Z,25.80
2018-05-31T21:38:20.490Z,25.78
2018-05-31T21:40:47.888Z,25.77
2018-05-31T21:43:15.303Z,25.77
2018-05-31T21:45:42.698Z,25.75
2018-05-31T21:48:10.108Z,25.73
2018-05-31T21:50:37.513Z,25.69
2018-05-31T21:53:04.918Z,25.66
2018-05-31T21:55:32.329Z,25.65
2018-05-31T21:57:59.743Z,25.63
2018-05-31T22:00:31.102Z,25.57
2018-05-31T22:02:58.514Z,25.54
2018-05-31T22:05:25.908Z,25.50
2018-05-31T22:07:53.317Z,25.51
2018-05-31T22:10:20.717Z,25.49
2018-05-31T22:12:48.151Z,25.49
2018-05-31T22:15:15.556Z,25.46
2018-05-31T22:17:42.946Z,25.46
2018-05-31T22:20:10.369Z,25.45
2018-05-31T22:22:37.773Z,25.42
2018-05-31T22:25:05.216Z,25.40
2018-05-31T22:27:32.621Z,25.34
2018-05-31T22:30:00.013Z,25.31
2018-05-31T22:32:27.697Z,25.29
2018-05-31T22:34:55.091Z,25.27
2018-05-31T22:37:22.489Z,25.27
2018-05-31T22:39:49.893Z,25.27
2018-05-31T22:42:17.296Z,25.30
2018-05-31T22:44:44.734Z,25.32
2018-05-31T22:47:12.153Z,25.33
2018-05-31T22:49:39.574Z,25.32
2018-05-31T22:52:06.973Z,25.29
2018-05-31T22:54:34.371Z,25.26
2018-05-31T22:57:01.837Z,25.22
2018-05-31T22:59:29.250Z,25.17
2018-05-31T23:01:56.641Z,25.13
2018-05-31T23:04:24.053Z,25.12
2018-05-31T23:06:51.457Z,25.11
2018-05-31T23:09:18.894Z,25.07
2018-05-31T23:11:46.272Z,25.02
2018-05-31T23:14:13.748Z,24.95
2018-05-31T23:16:41.113Z,24.91
2018-05-31T23:19:08.510Z,24.89
2018-05-31T23:21:35.921Z,24.87
2018-05-31T23:24:03.325Z,24.84
2018-05-31T23:26:30.721Z,24.81
2018-05-31T23:28:58.130Z,24.78
2018-05-31T23:31:25.529Z,24.75
2018-05-31T23:33:52.953Z,24.69
2018-05-31T23:36:20.350Z,24.66
2018-05-31T23:38:47.744Z,24.62
2018-05-31T23:41:15.161Z,24.60
2018-05-31T23:43:42.567Z,24.58
2018-05-31T23:46:09.968Z,24.59
2018-05-31T23:48:37.369Z,24.60
2018-05-31T23:51:04.781Z,24.60
2018-05-31T23:53:32.186Z,24.62
2018-05-31T23:55:59.586Z,24.63
2018-05-31T23:58:27.023Z,24.62
